sensor_id;sensor_type;location;lat;lon;timestamp;temperature;humidity
25564;DHT22;13453;47.994;8.790;2022-10-16T00:04:38;22.00;59.40
25564;DHT22;13453;47.994;8.790;2022-10-16T00:14:39;22.00;59.40
25564;DHT22;13453;47.994;8.790;2022-10-16T00:24:43;22.00;59.40
25564;DHT22;13453;47.994;8.790;2022-10-16T00:34:45;22.00;59.40
25564;DHT22;13453;47.994;8.790;2022-10-16T00:44:53;22.00;59.40
25564;DHT22;13453;47.994;8.790;2022-10-16T00:54:56;22.00;59.40
25564;DHT22;13453;47.994;8.790;2022-10-16T01:04:58;22.00;59.40
25564;DHT22;13453;47.994;8.790;2022-10-16T01:15:23;21.90;59.40
25564;DHT22;13453;47.994;8.790;2022-10-16T01:35:58;21.90;59.30
25564;DHT22;13453;47.994;8.790;2022-10-16T01:46:05;21.90;59.30
25564;DHT22;13453;47.994;8.790;2022-10-16T01:56:09;21.90;59.30
25564;DHT22;13453;47.994;8.790;2022-10-16T02:06:13;21.90;59.30
25564;DHT22;13453;47.994;8.790;2022-10-16T02:16:15;22.00;59.40
25564;DHT22;13453;47.994;8.790;2022-10-16T02:26:23;22.00;59.40
25564;DHT22;13453;47.994;8.790;2022-10-16T02:36:26;21.90;59.30
25564;DHT22;13453;47.994;8.790;2022-10-16T02:46:28;21.90;59.30
25564;DHT22;13453;47.994;8.790;2022-10-16T02:56:30;21.90;59.30
25564;DHT22;13453;47.994;8.790;2022-10-16T03:06:32;21.90;59.30
25564;DHT22;13453;47.994;8.790;2022-10-16T03:16:34;21.90;59.30
25564;DHT22;13453;47.994;8.790;2022-10-16T03:26:36;21.90;59.30
25564;DHT22;13453;47.994;8.790;2022-10-16T03:36:38;22.00;59.40
25564;DHT22;13453;47.994;8.790;2022-10-16T03:46:40;21.90;59.30
25564;DHT22;13453;47.994;8.790;2022-10-16T03:56:41;21.90;59.30
25564;DHT22;13453;47.994;8.790;2022-10-16T04:06:43;21.90;59.30
25564;DHT22;13453;47.994;8.790;2022-10-16T04:16:45;21.90;59.30
25564;DHT22;13453;47.994;8.790;2022-10-16T04:26:47;21.90;59.30
25564;DHT22;13453;47.994;8.790;2022-10-16T04:36:49;21.90;59.30
25564;DHT22;13453;47.994;8.790;2022-10-16T04:46:51;21.90;59.30
25564;DHT22;13453;47.994;8.790;2022-10-16T04:56:53;21.90;59.30
25564;DHT22;13453;47.994;8.790;2022-10-16T05:06:54;21.90;59.30
25564;DHT22;13453;47.994;8.790;2022-10-16T05:16:56;21.90;59.40
25564;DHT22;13453;47.994;8.790;2022-10-16T05:26:58;21.90;59.30
25564;DHT22;13453;47.994;8.790;2022-10-16T05:37:00;21.90;59.30
25564;DHT22;13453;47.994;8.790;2022-10-16T05:47:02;21.80;59.20
25564;DHT22;13453;47.994;8.790;2022-10-16T05:57:04;21.80;59.20
25564;DHT22;13453;47.994;8.790;2022-10-16T06:07:07;21.80;59.20
25564;DHT22;13453;47.994;8.790;2022-10-16T06:17:09;21.80;59.20
25564;DHT22;13453;47.994;8.790;2022-10-16T06:27:11;21.90;59.30
25564;DHT22;13453;47.994;8.790;2022-10-16T06:37:12;21.80;59.20
25564;DHT22;13453;47.994;8.790;2022-10-16T06:47:14;21.90;59.30
25564;DHT22;13453;47.994;8.790;2022-10-16T06:57:16;21.90;59.30
25564;DHT22;13453;47.994;8.790;2022-10-16T07:07:18;21.90;59.30
25564;DHT22;13453;47.994;8.790;2022-10-16T07:17:20;21.90;59.30
25564;DHT22;13453;47.994;8.790;2022-10-16T07:27:22;21.80;59.20
25564;DHT22;13453;47.994;8.790;2022-10-16T07:37:25;21.90;59.90
25564;DHT22;13453;47.994;8.790;2022-10-16T07:47:27;21.90;60.50
25564;DHT22;13453;47.994;8.790;2022-10-16T07:57:31;21.90;60.80
25564;DHT22;13453;47.994;8.790;2022-10-16T08:07:32;21.90;61.10
25564;DHT22;13453;47.994;8.790;2022-10-16T08:17:34;21.90;61.20
25564;DHT22;13453;47.994;8.790;2022-10-16T08:27:36;22.00;62.10
25564;DHT22;13453;47.994;8.790;2022-10-16T08:37:38;22.00;61.30
25564;DHT22;13453;47.994;8.790;2022-10-16T08:48:49;22.00;61.30
25564;DHT22;13453;47.994;8.790;2022-10-16T08:58:31;22.00;61.70
25564;DHT22;13453;47.994;8.790;2022-10-16T09:29:23;22.00;61.70
25564;DHT22;13453;47.994;8.790;2022-10-16T09:39:26;22.00;61.80
25564;DHT22;13453;47.994;8.790;2022-10-16T09:49:28;22.00;62.10
25564;DHT22;13453;47.994;8.790;2022-10-16T09:59:31;22.00;62.10
25564;DHT22;13453;47.994;8.790;2022-10-16T10:09:39;22.10;62.20
25564;DHT22;13453;47.994;8.790;2022-10-16T10:19:55;22.20;62.30
25564;DHT22;13453;47.994;8.790;2022-10-16T10:30:13;22.10;62.20
25564;DHT22;13453;47.994;8.790;2022-10-16T10:50:43;22.20;62.30
25564;DHT22;13453;47.994;8.790;2022-10-16T11:11:29;22.20;62.00
25564;DHT22;13453;47.994;8.790;2022-10-16T11:21:39;22.20;62.10
25564;DHT22;13453;47.994;8.790;2022-10-16T11:31:50;22.20;62.20
25564;DHT22;13453;47.994;8.790;2022-10-16T11:42:19;22.30;62.10
25564;DHT22;13453;47.994;8.790;2022-10-16T11:52:30;22.30;62.20
25564;DHT22;13453;47.994;8.790;2022-10-16T12:03:17;22.30;62.10
25564;DHT22;13453;47.994;8.790;2022-10-16T12:23:45;22.30;61.70
25564;DHT22;13453;47.994;8.790;2022-10-16T12:34:01;22.30;62.00
25564;DHT22;13453;47.994;8.790;2022-10-16T12:44:03;22.30;62.20
25564;DHT22;13453;47.994;8.790;2022-10-16T13:04:19;22.30;61.80
25564;DHT22;13453;47.994;8.790;2022-10-16T13:15:07;22.30;61.50
25564;DHT22;13453;47.994;8.790;2022-10-16T13:35:32;22.30;60.90
25564;DHT22;13453;47.994;8.790;2022-10-16T13:45:34;22.30;60.90
25564;DHT22;13453;47.994;8.790;2022-10-16T13:55:36;22.30;60.70
25564;DHT22;13453;47.994;8.790;2022-10-16T14:05:46;22.30;60.40
25564;DHT22;13453;47.994;8.790;2022-10-16T14:15:51;22.30;60.70
25564;DHT22;13453;47.994;8.790;2022-10-16T14:25:53;22.30;60.90
25564;DHT22;13453;47.994;8.790;2022-10-16T14:46:17;22.10;61.20
25564;DHT22;13453;47.994;8.790;2022-10-16T14:56:29;22.30;61.80
25564;DHT22;13453;47.994;8.790;2022-10-16T15:06:33;22.30;62.20
25564;DHT22;13453;47.994;8.790;2022-10-16T15:16:35;22.30;62.50
25564;DHT22;13453;47.994;8.790;2022-10-16T15:26:37;22.30;63.00
25564;DHT22;13453;47.994;8.790;2022-10-16T15:36:40;22.30;63.50
25564;DHT22;13453;47.994;8.790;2022-10-16T15:46:42;22.30;65.20
25564;DHT22;13453;47.994;8.790;2022-10-16T15:56:44;22.40;66.30
25564;DHT22;13453;47.994;8.790;2022-10-16T16:06:47;22.40;68.70
25564;DHT22;13453;47.994;8.790;2022-10-16T16:16:49;22.40;69.50
25564;DHT22;13453;47.994;8.790;2022-10-16T16:26:50;22.40;70.00
25564;DHT22;13453;47.994;8.790;2022-10-16T16:36:53;22.40;69.70
25564;DHT22;13453;47.994;8.790;2022-10-16T16:46:55;22.40;68.80
25564;DHT22;13453;47.994;8.790;2022-10-16T16:56:57;22.40;67.80
25564;DHT22;13453;47.994;8.790;2022-10-16T17:06:58;22.40;67.20
25564;DHT22;13453;47.994;8.790;2022-10-16T17:17:00;22.30;64.40
25564;DHT22;13453;47.994;8.790;2022-10-16T17:27:02;22.50;64.20
25564;DHT22;13453;47.994;8.790;2022-10-16T17:37:04;22.30;63.50
25564;DHT22;13453;47.994;8.790;2022-10-16T17:47:06;22.30;63.30
25564;DHT22;13453;47.994;8.790;2022-10-16T17:57:08;22.30;63.00
25564;DHT22;13453;47.994;8.790;2022-10-16T18:07:10;22.30;62.70
25564;DHT22;13453;47.994;8.790;2022-10-16T18:17:12;22.30;62.40
25564;DHT22;13453;47.994;8.790;2022-10-16T18:27:14;22.30;62.00
25564;DHT22;13453;47.994;8.790;2022-10-16T18:37:16;22.30;62.20
25564;DHT22;13453;47.994;8.790;2022-10-16T18:47:18;22.30;62.60
25564;DHT22;13453;47.994;8.790;2022-10-16T18:57:20;22.30;62.90
25564;DHT22;13453;47.994;8.790;2022-10-16T19:07:22;22.30;63.80
25564;DHT22;13453;47.994;8.790;2022-10-16T19:17:24;22.30;63.10
25564;DHT22;13453;47.994;8.790;2022-10-16T19:27:26;22.30;63.40
25564;DHT22;13453;47.994;8.790;2022-10-16T19:37:28;22.30;63.70
25564;DHT22;13453;47.994;8.790;2022-10-16T19:47:30;22.30;63.90
25564;DHT22;13453;47.994;8.790;2022-10-16T19:57:33;22.30;64.00
25564;DHT22;13453;47.994;8.790;2022-10-16T20:07:36;22.30;64.00
25564;DHT22;13453;47.994;8.790;2022-10-16T20:17:38;22.30;64.30
25564;DHT22;13453;47.994;8.790;2022-10-16T20:27:42;22.30;64.40
25564;DHT22;13453;47.994;8.790;2022-10-16T20:37:43;22.30;64.20
25564;DHT22;13453;47.994;8.790;2022-10-16T20:47:49;22.30;64.00
25564;DHT22;13453;47.994;8.790;2022-10-16T20:57:51;22.30;63.90
25564;DHT22;13453;47.994;8.790;2022-10-16T21:07:53;22.30;63.80
25564;DHT22;13453;47.994;8.790;2022-10-16T21:17:56;22.30;63.80
25564;DHT22;13453;47.994;8.790;2022-10-16T21:27:57;22.30;63.70
25564;DHT22;13453;47.994;8.790;2022-10-16T21:37:59;22.30;63.60
25564;DHT22;13453;47.994;8.790;2022-10-16T21:48:02;22.30;63.40
25564;DHT22;13453;47.994;8.790;2022-10-16T21:58:04;22.20;63.20
25564;DHT22;13453;47.994;8.790;2022-10-16T22:08:06;22.30;63.30
25564;DHT22;13453;47.994;8.790;2022-10-16T22:18:08;22.20;62.90
25564;DHT22;13453;47.994;8.790;2022-10-16T22:28:10;22.20;62.80
25564;DHT22;13453;47.994;8.790;2022-10-16T22:38:11;22.20;62.60
25564;DHT22;13453;47.994;8.790;2022-10-16T22:48:13;22.20;62.60
25564;DHT22;13453;47.994;8.790;2022-10-16T22:58:15;22.20;62.30
25564;DHT22;13453;47.994;8.790;2022-10-16T23:08:17;22.30;62.30
25564;DHT22;13453;47.994;8.790;2022-10-16T23:18:19;22.20;62.00
25564;DHT22;13453;47.994;8.790;2022-10-16T23:28:20;22.20;62.00
25564;DHT22;13453;47.994;8.790;2022-10-16T23:38:22;22.20;61.80
25564;DHT22;13453;47.994;8.790;2022-10-16T23:48:24;22.20;61.70
25564;DHT22;13453;47.994;8.790;2022-10-16T23:58:26;22.20;61.70
